Pagina principală
METAR-TAF:

METAR-TAF

Aeroporturi :

Skopje, Macedonia

Latitudine: 41-58N, longitudine: 021-39E, elevație: 238 m

Observații meteo curente

Raportul a fost făcut în urmă cu 37 de minute, la 09:20 UTC
Vânt 2 kt de la Vest
Temperatură 35°C
Umiditate 37%
Presiune 1014 hPa
Vizibilitate de 10 km sau mai mult
nu există nori sub 1.500 m și nici cumulonimbus

METAR: LWSK 170920Z 27002KT CAVOK 35/18 Q1014 NOSIG

Ora: 11:57 (09:57 UTC)

Prognoză

Raportul a fost făcut în urmă cu 1 oră și 47 de minute, la 08:10 UTC
Prognoză valabilă de la 17 ora 09 UTC la 18 ora 09 UTC
Vânt 2 kt din direcții variabile
Vizibilitate de 10 km sau mai mult
nu există nori sub 1.500 m și nici cumulonimbus
Temporar
de la 17 ora 12 UTC la 17 ora 20 UTC
Vânt 10 kt de la Nord/Nord-est

TAF: LWSK 170810Z 1709/1809 VRB02KT CAVOK TEMPO 1712/1720 03010KT

Observații și prognoze meteo pentru peste 4.000 de aeroporturi (rapoarte METAR și TAF).

Stațiile disponibile sunt reprezentate pe hartă prin puncte galbene și roșii.

Țineți indicatorul mouse-ului pe punctul dorit pentru a vedea denumirea stației.

Apoi, faceți clic pentru a vedea observațiile și prognozele meteorologice.

Pentru a schimba harta: Pentru mărire, faceți clic pe butoanele verzi cu cruce neagră; pentru micșorare, pe butonul verde cu o liniuță; pentru hărți învecinate, pe săgețile verzi.


METAR-TAF: